sensor_id;sensor_type;location;lat;lon;timestamp;temperature;humidity
16384;DHT22;8301;51.440;6.610;2023-02-28T00:00:52;0.00;1.00
16384;DHT22;8301;51.440;6.610;2023-02-28T00:03:20;-0.10;99.90
16384;DHT22;8301;51.440;6.610;2023-02-28T00:05:46;-0.10;1.00
16384;DHT22;8301;51.440;6.610;2023-02-28T00:08:13;-0.20;99.90
16384;DHT22;8301;51.440;6.610;2023-02-28T00:10:40;-0.20;1.00
16384;DHT22;8301;51.440;6.610;2023-02-28T00:13:07;-0.20;99.90
16384;DHT22;8301;51.440;6.610;2023-02-28T00:15:34;-0.20;1.00
16384;DHT22;8301;51.440;6.610;2023-02-28T00:18:02;-0.30;1.00
16384;DHT22;8301;51.440;6.610;2023-02-28T00:20:29;-0.30;1.00
16384;DHT22;8301;51.440;6.610;2023-02-28T00:22:55;-0.30;1.00
16384;DHT22;8301;51.440;6.610;2023-02-28T00:25:23;-0.40;99.90
16384;DHT22;8301;51.440;6.610;2023-02-28T00:27:56;-0.30;99.90
16384;DHT22;8301;51.440;6.610;2023-02-28T00:30:23;-0.30;1.00
16384;DHT22;8301;51.440;6.610;2023-02-28T00:32:50;-0.40;99.90
16384;DHT22;8301;51.440;6.610;2023-02-28T00:35:18;-0.40;99.90
16384;DHT22;8301;51.440;6.610;2023-02-28T00:37:44;-0.40;99.90
16384;DHT22;8301;51.440;6.610;2023-02-28T00:40:11;-0.40;99.90
16384;DHT22;8301;51.440;6.610;2023-02-28T00:42:38;-0.40;7.40
16384;DHT22;8301;51.440;6.610;2023-02-28T00:45:06;-0.40;99.90
16384;DHT22;8301;51.440;6.610;2023-02-28T00:47:33;-0.30;1.00
16384;DHT22;8301;51.440;6.610;2023-02-28T00:50:02;-0.30;1.00
16384;DHT22;8301;51.440;6.610;2023-02-28T00:52:30;-0.30;1.00
16384;DHT22;8301;51.440;6.610;2023-02-28T00:54:56;-0.20;99.90
16384;DHT22;8301;51.440;6.610;2023-02-28T00:57:23;-0.20;75.50
16384;DHT22;8301;51.440;6.610;2023-02-28T00:59:50;-0.20;1.00
16384;DHT22;8301;51.440;6.610;2023-02-28T01:02:18;-0.20;99.90
16384;DHT22;8301;51.440;6.610;2023-02-28T01:04:45;-0.10;99.90
16384;DHT22;8301;51.440;6.610;2023-02-28T01:07:12;-0.10;1.00
16384;DHT22;8301;51.440;6.610;2023-02-28T01:09:42;0.10;91.60
16384;DHT22;8301;51.440;6.610;2023-02-28T01:12:10;0.10;99.90
16384;DHT22;8301;51.440;6.610;2023-02-28T01:14:37;0.10;99.90
16384;DHT22;8301;51.440;6.610;2023-02-28T01:17:03;0.10;79.40
16384;DHT22;8301;51.440;6.610;2023-02-28T01:19:30;0.10;99.90
16384;DHT22;8301;51.440;6.610;2023-02-28T01:22:00;0.10;99.90
16384;DHT22;8301;51.440;6.610;2023-02-28T01:24:25;0.00;99.90
16384;DHT22;8301;51.440;6.610;2023-02-28T01:26:52;0.10;1.00
16384;DHT22;8301;51.440;6.610;2023-02-28T01:29:19;0.10;1.00
16384;DHT22;8301;51.440;6.610;2023-02-28T01:31:46;0.10;86.40
16384;DHT22;8301;51.440;6.610;2023-02-28T01:34:12;0.00;99.90
16384;DHT22;8301;51.440;6.610;2023-02-28T01:36:39;0.00;99.90
16384;DHT22;8301;51.440;6.610;2023-02-28T01:39:06;0.00;99.90
16384;DHT22;8301;51.440;6.610;2023-02-28T01:41:33;0.00;99.90
16384;DHT22;8301;51.440;6.610;2023-02-28T01:44:03;0.00;16.80
16384;DHT22;8301;51.440;6.610;2023-02-28T01:46:30;0.00;99.90
16384;DHT22;8301;51.440;6.610;2023-02-28T01:49:00;0.00;99.90
16384;DHT22;8301;51.440;6.610;2023-02-28T01:51:31;-0.10;99.90
16384;DHT22;8301;51.440;6.610;2023-02-28T01:53:59;-0.10;1.00
16384;DHT22;8301;51.440;6.610;2023-02-28T01:56:27;-0.10;1.00
16384;DHT22;8301;51.440;6.610;2023-02-28T01:58:55;-0.10;1.00
16384;DHT22;8301;51.440;6.610;2023-02-28T02:01:28;-0.20;99.90
16384;DHT22;8301;51.440;6.610;2023-02-28T02:03:58;-0.20;99.90
16384;DHT22;8301;51.440;6.610;2023-02-28T02:06:27;-0.20;1.00
16384;DHT22;8301;51.440;6.610;2023-02-28T02:08:54;-0.20;1.00
16384;DHT22;8301;51.440;6.610;2023-02-28T02:11:21;-0.30;99.90
16384;DHT22;8301;51.440;6.610;2023-02-28T02:16:43;-0.20;42.70
16384;DHT22;8301;51.440;6.610;2023-02-28T02:19:32;-0.20;1.00
16384;DHT22;8301;51.440;6.610;2023-02-28T02:29:39;-0.30;1.00
16384;DHT22;8301;51.440;6.610;2023-02-28T02:32:19;-0.40;61.80
16384;DHT22;8301;51.440;6.610;2023-02-28T02:34:51;-0.50;99.90
16384;DHT22;8301;51.440;6.610;2023-02-28T02:40:02;-0.70;1.00
16384;DHT22;8301;51.440;6.610;2023-02-28T02:42:35;-0.80;99.90
16384;DHT22;8301;51.440;6.610;2023-02-28T02:45:09;-0.80;1.00
16384;DHT22;8301;51.440;6.610;2023-02-28T02:47:31;-0.90;99.90
16384;DHT22;8301;51.440;6.610;2023-02-28T02:50:01;-0.90;1.00
16384;DHT22;8301;51.440;6.610;2023-02-28T02:52:30;-1.00;1.00
16384;DHT22;8301;51.440;6.610;2023-02-28T02:54:57;-1.00;1.00
16384;DHT22;8301;51.440;6.610;2023-02-28T02:57:33;-1.10;99.90
16384;DHT22;8301;51.440;6.610;2023-02-28T03:00:05;-1.20;1.00
16384;DHT22;8301;51.440;6.610;2023-02-28T03:02:34;-1.30;1.00
16384;DHT22;8301;51.440;6.610;2023-02-28T03:05:08;-1.30;99.90
16384;DHT22;8301;51.440;6.610;2023-02-28T03:07:30;-1.50;1.00
16384;DHT22;8301;51.440;6.610;2023-02-28T03:09:57;-1.50;1.00
16384;DHT22;8301;51.440;6.610;2023-02-28T03:12:27;-1.70;1.00
16384;DHT22;8301;51.440;6.610;2023-02-28T03:14:56;-1.70;1.00
16384;DHT22;8301;51.440;6.610;2023-02-28T03:20:02;-1.70;99.90
16384;DHT22;8301;51.440;6.610;2023-02-28T03:22:38;-1.60;1.00
16384;DHT22;8301;51.440;6.610;2023-02-28T03:30:35;-1.70;1.00
16384;DHT22;8301;51.440;6.610;2023-02-28T03:35:37;-1.80;1.00
16384;DHT22;8301;51.440;6.610;2023-02-28T03:38:09;-1.90;99.90
16384;DHT22;8301;51.440;6.610;2023-02-28T03:40:35;-1.90;99.90
16384;DHT22;8301;51.440;6.610;2023-02-28T03:43:04;-2.00;99.90
16384;DHT22;8301;51.440;6.610;2023-02-28T03:45:32;-2.10;10.90
16384;DHT22;8301;51.440;6.610;2023-02-28T03:48:14;-2.10;99.90
16384;DHT22;8301;51.440;6.610;2023-02-28T03:50:42;-2.10;99.90
16384;DHT22;8301;51.440;6.610;2023-02-28T03:55:42;-2.20;1.00
16384;DHT22;8301;51.440;6.610;2023-02-28T04:00:46;-2.20;1.00
16384;DHT22;8301;51.440;6.610;2023-02-28T04:03:09;-2.40;1.00
16384;DHT22;8301;51.440;6.610;2023-02-28T04:05:47;-2.50;1.00
16384;DHT22;8301;51.440;6.610;2023-02-28T04:08:14;-2.50;1.00
16384;DHT22;8301;51.440;6.610;2023-02-28T04:10:41;-2.50;24.10
16384;DHT22;8301;51.440;6.610;2023-02-28T04:13:09;-2.30;99.90
16384;DHT22;8301;51.440;6.610;2023-02-28T04:15:36;-2.30;1.00
16384;DHT22;8301;51.440;6.610;2023-02-28T04:18:03;-2.30;1.00
16384;DHT22;8301;51.440;6.610;2023-02-28T04:20:39;-2.30;1.00
16384;DHT22;8301;51.440;6.610;2023-02-28T04:23:08;-2.30;1.00
16384;DHT22;8301;51.440;6.610;2023-02-28T04:25:36;-2.30;1.00
16384;DHT22;8301;51.440;6.610;2023-02-28T04:28:08;-2.30;1.00
16384;DHT22;8301;51.440;6.610;2023-02-28T04:30:35;-2.30;1.00
16384;DHT22;8301;51.440;6.610;2023-02-28T04:33:04;-2.30;1.00
16384;DHT22;8301;51.440;6.610;2023-02-28T04:35:31;-2.30;1.00
16384;DHT22;8301;51.440;6.610;2023-02-28T04:37:58;-2.30;1.00
16384;DHT22;8301;51.440;6.610;2023-02-28T04:40:25;-2.20;1.00
16384;DHT22;8301;51.440;6.610;2023-02-28T04:42:52;-2.20;99.90
16384;DHT22;8301;51.440;6.610;2023-02-28T04:45:19;-2.20;99.90
16384;DHT22;8301;51.440;6.610;2023-02-28T04:47:47;-2.20;99.90
16384;DHT22;8301;51.440;6.610;2023-02-28T04:50:14;-2.20;1.00
16384;DHT22;8301;51.440;6.610;2023-02-28T04:52:41;-2.20;1.00
16384;DHT22;8301;51.440;6.610;2023-02-28T04:55:08;-2.10;99.90
16384;DHT22;8301;51.440;6.610;2023-02-28T04:57:34;-2.10;1.00
16384;DHT22;8301;51.440;6.610;2023-02-28T05:00:01;-2.10;99.90
16384;DHT22;8301;51.440;6.610;2023-02-28T05:02:30;-2.10;1.00
16384;DHT22;8301;51.440;6.610;2023-02-28T05:04:56;-1.90;1.00
16384;DHT22;8301;51.440;6.610;2023-02-28T05:07:24;-1.90;1.00
16384;DHT22;8301;51.440;6.610;2023-02-28T05:09:51;-1.90;1.00
16384;DHT22;8301;51.440;6.610;2023-02-28T05:12:18;-1.90;95.10
16384;DHT22;8301;51.440;6.610;2023-02-28T05:14:46;-1.80;1.00
16384;DHT22;8301;51.440;6.610;2023-02-28T05:17:13;-1.70;1.00
16384;DHT22;8301;51.440;6.610;2023-02-28T05:19:40;-1.70;1.00
16384;DHT22;8301;51.440;6.610;2023-02-28T05:22:14;-1.70;1.00
16384;DHT22;8301;51.440;6.610;2023-02-28T05:24:44;-1.70;1.00
16384;DHT22;8301;51.440;6.610;2023-02-28T05:27:11;-1.70;1.00
16384;DHT22;8301;51.440;6.610;2023-02-28T05:29:49;-1.70;1.00
16384;DHT22;8301;51.440;6.610;2023-02-28T05:32:17;-1.60;99.90
16384;DHT22;8301;51.440;6.610;2023-02-28T05:34:44;-1.50;99.90
16384;DHT22;8301;51.440;6.610;2023-02-28T05:37:12;-1.50;99.90
16384;DHT22;8301;51.440;6.610;2023-02-28T05:39:39;-1.60;99.90
16384;DHT22;8301;51.440;6.610;2023-02-28T05:42:06;-1.70;99.90
16384;DHT22;8301;51.440;6.610;2023-02-28T05:44:35;-1.70;99.90
16384;DHT22;8301;51.440;6.610;2023-02-28T05:47:02;-1.70;1.00
16384;DHT22;8301;51.440;6.610;2023-02-28T05:49:29;-1.70;1.00
16384;DHT22;8301;51.440;6.610;2023-02-28T05:51:55;-1.60;16.60
16384;DHT22;8301;51.440;6.610;2023-02-28T05:54:22;-1.60;47.00
16384;DHT22;8301;51.440;6.610;2023-02-28T05:56:49;-1.60;1.00
16384;DHT22;8301;51.440;6.610;2023-02-28T05:59:25;-1.60;1.00
16384;DHT22;8301;51.440;6.610;2023-02-28T06:01:52;-1.70;1.00
16384;DHT22;8301;51.440;6.610;2023-02-28T06:04:19;-1.70;1.00
16384;DHT22;8301;51.440;6.610;2023-02-28T06:06:46;-1.70;1.00
16384;DHT22;8301;51.440;6.610;2023-02-28T06:09:13;-1.60;1.00
16384;DHT22;8301;51.440;6.610;2023-02-28T06:11:49;-1.70;1.00
16384;DHT22;8301;51.440;6.610;2023-02-28T06:14:18;-1.70;1.00
16384;DHT22;8301;51.440;6.610;2023-02-28T06:16:45;-1.70;1.00
16384;DHT22;8301;51.440;6.610;2023-02-28T06:19:12;-1.70;1.00
16384;DHT22;8301;51.440;6.610;2023-02-28T06:21:39;-1.70;1.00
16384;DHT22;8301;51.440;6.610;2023-02-28T06:24:06;-1.70;41.20
16384;DHT22;8301;51.440;6.610;2023-02-28T06:26:33;-1.60;1.00
16384;DHT22;8301;51.440;6.610;2023-02-28T06:29:00;-1.60;1.00
16384;DHT22;8301;51.440;6.610;2023-02-28T06:31:26;-1.40;1.00
16384;DHT22;8301;51.440;6.610;2023-02-28T06:33:54;-1.40;1.00
16384;DHT22;8301;51.440;6.610;2023-02-28T06:36:22;-1.40;1.00
16384;DHT22;8301;51.440;6.610;2023-02-28T06:38:49;-1.40;1.00
16384;DHT22;8301;51.440;6.610;2023-02-28T06:41:17;-1.40;1.00
16384;DHT22;8301;51.440;6.610;2023-02-28T06:43:45;-1.50;1.00
16384;DHT22;8301;51.440;6.610;2023-02-28T06:46:13;-1.40;1.00
16384;DHT22;8301;51.440;6.610;2023-02-28T06:48:40;-1.40;1.00
16384;DHT22;8301;51.440;6.610;2023-02-28T06:51:15;-1.50;1.00
16384;DHT22;8301;51.440;6.610;2023-02-28T06:53:41;-1.40;1.00
16384;DHT22;8301;51.440;6.610;2023-02-28T06:56:09;-1.30;1.00
16384;DHT22;8301;51.440;6.610;2023-02-28T06:58:36;-1.30;1.00
16384;DHT22;8301;51.440;6.610;2023-02-28T07:01:03;-1.20;1.00
16384;DHT22;8301;51.440;6.610;2023-02-28T07:03:31;-1.20;1.00
16384;DHT22;8301;51.440;6.610;2023-02-28T07:05:58;-1.10;99.90
16384;DHT22;8301;51.440;6.610;2023-02-28T07:08:25;-1.10;1.00
16384;DHT22;8301;51.440;6.610;2023-02-28T07:10:53;-1.00;99.90
16384;DHT22;8301;51.440;6.610;2023-02-28T07:13:21;-1.00;1.00
16384;DHT22;8301;51.440;6.610;2023-02-28T07:16:01;-0.90;1.00
16384;DHT22;8301;51.440;6.610;2023-02-28T07:18:28;-0.90;99.90
16384;DHT22;8301;51.440;6.610;2023-02-28T07:20:57;-0.70;99.90
16384;DHT22;8301;51.440;6.610;2023-02-28T07:23:23;-0.60;99.90
16384;DHT22;8301;51.440;6.610;2023-02-28T07:25:50;-0.40;99.90
16384;DHT22;8301;51.440;6.610;2023-02-28T07:28:17;-0.20;55.50
16384;DHT22;8301;51.440;6.610;2023-02-28T07:30:54;0.00;1.00
16384;DHT22;8301;51.440;6.610;2023-02-28T07:33:23;0.20;1.00
16384;DHT22;8301;51.440;6.610;2023-02-28T07:35:50;0.50;1.00
16384;DHT22;8301;51.440;6.610;2023-02-28T07:38:16;0.90;1.00
16384;DHT22;8301;51.440;6.610;2023-02-28T07:40:43;1.10;1.00
16384;DHT22;8301;51.440;6.610;2023-02-28T07:43:10;1.10;1.00
16384;DHT22;8301;51.440;6.610;2023-02-28T07:45:37;1.40;1.00
16384;DHT22;8301;51.440;6.610;2023-02-28T07:48:04;1.80;99.90
16384;DHT22;8301;51.440;6.610;2023-02-28T07:50:30;2.10;99.90
16384;DHT22;8301;51.440;6.610;2023-02-28T07:52:59;2.20;1.00
16384;DHT22;8301;51.440;6.610;2023-02-28T07:55:26;2.40;1.00
16384;DHT22;8301;51.440;6.610;2023-02-28T07:57:59;2.40;1.00
16384;DHT22;8301;51.440;6.610;2023-02-28T08:00:26;1.80;99.90
16384;DHT22;8301;51.440;6.610;2023-02-28T08:02:54;1.80;99.90
16384;DHT22;8301;51.440;6.610;2023-02-28T08:05:21;2.00;99.90
16384;DHT22;8301;51.440;6.610;2023-02-28T08:07:48;1.80;99.90
16384;DHT22;8301;51.440;6.610;2023-02-28T08:10:16;1.60;99.90
16384;DHT22;8301;51.440;6.610;2023-02-28T08:12:43;1.50;99.90
16384;DHT22;8301;51.440;6.610;2023-02-28T08:15:09;1.60;99.90
16384;DHT22;8301;51.440;6.610;2023-02-28T08:17:36;1.60;99.90
16384;DHT22;8301;51.440;6.610;2023-02-28T08:20:03;1.70;99.90
16384;DHT22;8301;51.440;6.610;2023-02-28T08:22:30;1.70;99.90
16384;DHT22;8301;51.440;6.610;2023-02-28T08:24:57;2.00;99.90
16384;DHT22;8301;51.440;6.610;2023-02-28T08:27:25;2.00;99.90
16384;DHT22;8301;51.440;6.610;2023-02-28T08:29:52;2.20;99.90
16384;DHT22;8301;51.440;6.610;2023-02-28T08:32:18;2.70;99.90
16384;DHT22;8301;51.440;6.610;2023-02-28T08:34:45;3.00;99.90
16384;DHT22;8301;51.440;6.610;2023-02-28T08:37:12;3.20;99.90
16384;DHT22;8301;51.440;6.610;2023-02-28T08:39:39;3.20;97.20
16384;DHT22;8301;51.440;6.610;2023-02-28T08:42:06;3.00;99.90
16384;DHT22;8301;51.440;6.610;2023-02-28T08:44:33;3.20;99.90
16384;DHT22;8301;51.440;6.610;2023-02-28T08:47:02;3.10;73.00
16384;DHT22;8301;51.440;6.610;2023-02-28T08:49:28;3.30;44.40
16384;DHT22;8301;51.440;6.610;2023-02-28T08:51:55;3.60;30.60
16384;DHT22;8301;51.440;6.610;2023-02-28T08:54:24;3.90;19.00
16384;DHT22;8301;51.440;6.610;2023-02-28T08:56:51;4.00;1.00
16384;DHT22;8301;51.440;6.610;2023-02-28T08:59:17;4.50;1.00
16384;DHT22;8301;51.440;6.610;2023-02-28T09:01:46;4.90;1.00
16384;DHT22;8301;51.440;6.610;2023-02-28T09:04:13;5.70;1.00
16384;DHT22;8301;51.440;6.610;2023-02-28T09:06:40;5.80;1.00
16384;DHT22;8301;51.440;6.610;2023-02-28T09:09:08;6.00;1.00
16384;DHT22;8301;51.440;6.610;2023-02-28T09:11:35;5.90;1.00
16384;DHT22;8301;51.440;6.610;2023-02-28T09:14:02;5.50;1.00
16384;DHT22;8301;51.440;6.610;2023-02-28T09:16:31;5.70;1.00
16384;DHT22;8301;51.440;6.610;2023-02-28T09:18:59;6.40;1.00
16384;DHT22;8301;51.440;6.610;2023-02-28T09:21:26;6.60;1.00
16384;DHT22;8301;51.440;6.610;2023-02-28T09:23:53;7.10;1.00
16384;DHT22;8301;51.440;6.610;2023-02-28T09:26:21;7.10;1.00
16384;DHT22;8301;51.440;6.610;2023-02-28T09:28:48;7.00;1.00
16384;DHT22;8301;51.440;6.610;2023-02-28T09:31:17;7.00;1.00
16384;DHT22;8301;51.440;6.610;2023-02-28T09:33:46;7.20;1.00
16384;DHT22;8301;51.440;6.610;2023-02-28T09:36:12;7.10;1.00
16384;DHT22;8301;51.440;6.610;2023-02-28T09:38:40;6.30;1.00
16384;DHT22;8301;51.440;6.610;2023-02-28T09:41:12;6.30;1.00
16384;DHT22;8301;51.440;6.610;2023-02-28T09:43:47;6.00;1.00
16384;DHT22;8301;51.440;6.610;2023-02-28T09:46:18;5.60;1.00
16384;DHT22;8301;51.440;6.610;2023-02-28T09:48:44;5.50;1.00
16384;DHT22;8301;51.440;6.610;2023-02-28T09:53:42;5.20;1.00
16384;DHT22;8301;51.440;6.610;2023-02-28T09:56:09;4.90;1.00
16384;DHT22;8301;51.440;6.610;2023-02-28T09:58:59;4.70;1.00
16384;DHT22;8301;51.440;6.610;2023-02-28T10:04:07;4.30;1.00
16384;DHT22;8301;51.440;6.610;2023-02-28T10:06:41;4.40;1.00
16384;DHT22;8301;51.440;6.610;2023-02-28T10:09:08;4.30;1.00
16384;DHT22;8301;51.440;6.610;2023-02-28T10:11:36;4.20;1.00
16384;DHT22;8301;51.440;6.610;2023-02-28T10:16:43;4.30;1.00
16384;DHT22;8301;51.440;6.610;2023-02-28T10:19:26;4.50;1.00
16384;DHT22;8301;51.440;6.610;2023-02-28T10:22:09;4.60;1.00
16384;DHT22;8301;51.440;6.610;2023-02-28T10:24:34;4.60;1.00
16384;DHT22;8301;51.440;6.610;2023-02-28T10:27:06;4.30;1.00
16384;DHT22;8301;51.440;6.610;2023-02-28T10:29:31;4.10;1.00
16384;DHT22;8301;51.440;6.610;2023-02-28T10:31:58;4.30;1.00
16384;DHT22;8301;51.440;6.610;2023-02-28T10:34:26;4.40;1.00
16384;DHT22;8301;51.440;6.610;2023-02-28T10:36:55;4.60;1.00
16384;DHT22;8301;51.440;6.610;2023-02-28T10:39:34;4.40;1.00
16384;DHT22;8301;51.440;6.610;2023-02-28T10:42:02;4.50;1.00
16384;DHT22;8301;51.440;6.610;2023-02-28T10:44:29;4.50;1.00
16384;DHT22;8301;51.440;6.610;2023-02-28T10:46:56;4.40;1.00
16384;DHT22;8301;51.440;6.610;2023-02-28T10:49:24;4.40;1.00
16384;DHT22;8301;51.440;6.610;2023-02-28T10:51:52;4.40;1.00
16384;DHT22;8301;51.440;6.610;2023-02-28T10:54:33;4.30;1.00
16384;DHT22;8301;51.440;6.610;2023-02-28T10:57:20;4.00;1.00
16384;DHT22;8301;51.440;6.610;2023-02-28T10:59:51;3.70;1.00
16384;DHT22;8301;51.440;6.610;2023-02-28T11:02:32;3.80;1.00
16384;DHT22;8301;51.440;6.610;2023-02-28T11:04:59;3.60;1.00
16384;DHT22;8301;51.440;6.610;2023-02-28T11:07:26;3.50;1.00
16384;DHT22;8301;51.440;6.610;2023-02-28T11:09:54;3.50;1.00
16384;DHT22;8301;51.440;6.610;2023-02-28T11:15:01;3.50;1.00
16384;DHT22;8301;51.440;6.610;2023-02-28T11:17:26;3.50;1.00
16384;DHT22;8301;51.440;6.610;2023-02-28T11:20:03;3.40;1.00
16384;DHT22;8301;51.440;6.610;2023-02-28T11:22:31;3.50;1.00
16384;DHT22;8301;51.440;6.610;2023-02-28T11:24:59;3.60;1.00
16384;DHT22;8301;51.440;6.610;2023-02-28T11:29:59;3.40;1.00
16384;DHT22;8301;51.440;6.610;2023-02-28T11:32:28;3.40;1.00
16384;DHT22;8301;51.440;6.610;2023-02-28T11:37:46;3.20;1.00
16384;DHT22;8301;51.440;6.610;2023-02-28T11:40:18;3.50;1.00
16384;DHT22;8301;51.440;6.610;2023-02-28T11:53:48;4.90;1.00
16384;DHT22;8301;51.440;6.610;2023-02-28T11:56:24;5.10;1.00
16384;DHT22;8301;51.440;6.610;2023-02-28T12:01:38;5.00;1.00
16384;DHT22;8301;51.440;6.610;2023-02-28T12:04:22;5.10;1.00
16384;DHT22;8301;51.440;6.610;2023-02-28T12:06:48;5.20;1.00
16384;DHT22;8301;51.440;6.610;2023-02-28T12:09:29;5.10;1.00
16384;DHT22;8301;51.440;6.610;2023-02-28T12:11:52;5.30;1.00
16384;DHT22;8301;51.440;6.610;2023-02-28T12:15:13;5.10;1.00
16384;DHT22;8301;51.440;6.610;2023-02-28T12:20:40;5.10;1.00
16384;DHT22;8301;51.440;6.610;2023-02-28T12:22:22;5.40;1.00
16384;DHT22;8301;51.440;6.610;2023-02-28T12:24:54;5.40;1.00
16384;DHT22;8301;51.440;6.610;2023-02-28T12:27:18;5.40;1.00
16384;DHT22;8301;51.440;6.610;2023-02-28T12:34:57;5.50;1.00
16384;DHT22;8301;51.440;6.610;2023-02-28T12:37:29;5.40;1.00
16384;DHT22;8301;51.440;6.610;2023-02-28T12:39:59;5.40;1.00
16384;DHT22;8301;51.440;6.610;2023-02-28T12:42:26;5.40;1.00
16384;DHT22;8301;51.440;6.610;2023-02-28T12:44:54;5.60;1.00
16384;DHT22;8301;51.440;6.610;2023-02-28T12:47:21;5.50;1.00
16384;DHT22;8301;51.440;6.610;2023-02-28T12:52:28;5.80;1.00
16384;DHT22;8301;51.440;6.610;2023-02-28T12:54:55;5.70;1.00
16384;DHT22;8301;51.440;6.610;2023-02-28T13:00:11;5.60;1.00
16384;DHT22;8301;51.440;6.610;2023-02-28T13:07:49;5.70;1.00
16384;DHT22;8301;51.440;6.610;2023-02-28T13:10:12;5.60;1.00
16384;DHT22;8301;51.440;6.610;2023-02-28T13:12:49;5.50;1.00
16384;DHT22;8301;51.440;6.610;2023-02-28T13:15:18;5.50;1.00
16384;DHT22;8301;51.440;6.610;2023-02-28T13:17:51;5.70;1.00
16384;DHT22;8301;51.440;6.610;2023-02-28T13:23:39;5.80;1.00
16384;DHT22;8301;51.440;6.610;2023-02-28T13:26:09;6.00;1.00
16384;DHT22;8301;51.440;6.610;2023-02-28T13:31:23;5.70;1.00
16384;DHT22;8301;51.440;6.610;2023-02-28T13:36:29;5.80;1.00
16384;DHT22;8301;51.440;6.610;2023-02-28T13:38:57;5.80;1.00
16384;DHT22;8301;51.440;6.610;2023-02-28T13:44:00;5.90;1.00
16384;DHT22;8301;51.440;6.610;2023-02-28T13:46:28;6.00;1.00
16384;DHT22;8301;51.440;6.610;2023-02-28T13:48:55;5.90;1.00
16384;DHT22;8301;51.440;6.610;2023-02-28T13:51:35;5.90;1.00
16384;DHT22;8301;51.440;6.610;2023-02-28T13:54:04;6.20;1.00
16384;DHT22;8301;51.440;6.610;2023-02-28T13:56:28;5.90;1.00
16384;DHT22;8301;51.440;6.610;2023-02-28T13:58:57;5.90;1.00
16384;DHT22;8301;51.440;6.610;2023-02-28T14:07:00;5.60;1.00
16384;DHT22;8301;51.440;6.610;2023-02-28T14:09:33;5.80;1.00
16384;DHT22;8301;51.440;6.610;2023-02-28T14:14:53;5.90;1.00
16384;DHT22;8301;51.440;6.610;2023-02-28T14:17:13;5.90;1.00
16384;DHT22;8301;51.440;6.610;2023-02-28T14:19:43;5.80;1.00
16384;DHT22;8301;51.440;6.610;2023-02-28T14:30:25;5.80;1.00
16384;DHT22;8301;51.440;6.610;2023-02-28T14:38:13;5.80;1.00
16384;DHT22;8301;51.440;6.610;2023-02-28T14:40:37;5.80;1.00
16384;DHT22;8301;51.440;6.610;2023-02-28T14:43:05;5.70;1.00
16384;DHT22;8301;51.440;6.610;2023-02-28T14:45:33;5.90;1.00
16384;DHT22;8301;51.440;6.610;2023-02-28T14:48:03;5.80;1.00
16384;DHT22;8301;51.440;6.610;2023-02-28T14:50:32;5.90;1.00
16384;DHT22;8301;51.440;6.610;2023-02-28T14:53:01;6.00;1.00
16384;DHT22;8301;51.440;6.610;2023-02-28T14:55:35;5.90;1.00
16384;DHT22;8301;51.440;6.610;2023-02-28T14:57:58;5.90;1.00
16384;DHT22;8301;51.440;6.610;2023-02-28T15:00:31;6.00;1.00
16384;DHT22;8301;51.440;6.610;2023-02-28T15:02:58;5.90;1.00
16384;DHT22;8301;51.440;6.610;2023-02-28T15:05:31;5.80;1.00
16384;DHT22;8301;51.440;6.610;2023-02-28T15:08:03;5.90;1.00
16384;DHT22;8301;51.440;6.610;2023-02-28T15:10:28;5.80;1.00
16384;DHT22;8301;51.440;6.610;2023-02-28T15:13:00;5.90;1.00
16384;DHT22;8301;51.440;6.610;2023-02-28T15:15:35;5.60;1.00
16384;DHT22;8301;51.440;6.610;2023-02-28T15:18:02;5.60;1.00
16384;DHT22;8301;51.440;6.610;2023-02-28T15:20:31;5.50;1.00
16384;DHT22;8301;51.440;6.610;2023-02-28T15:22:58;5.50;1.00
16384;DHT22;8301;51.440;6.610;2023-02-28T15:25:25;5.50;1.00
16384;DHT22;8301;51.440;6.610;2023-02-28T15:27:55;5.50;1.00
16384;DHT22;8301;51.440;6.610;2023-02-28T15:40:54;5.60;1.00
16384;DHT22;8301;51.440;6.610;2023-02-28T15:43:26;5.40;1.00
16384;DHT22;8301;51.440;6.610;2023-02-28T15:45:57;5.40;1.00
16384;DHT22;8301;51.440;6.610;2023-02-28T15:48:30;5.30;1.00
16384;DHT22;8301;51.440;6.610;2023-02-28T15:50:56;5.20;1.00
16384;DHT22;8301;51.440;6.610;2023-02-28T15:53:27;5.20;1.00
16384;DHT22;8301;51.440;6.610;2023-02-28T15:56:01;5.10;1.00
16384;DHT22;8301;51.440;6.610;2023-02-28T15:58:24;5.00;1.00
16384;DHT22;8301;51.440;6.610;2023-02-28T16:01:03;5.00;1.00
16384;DHT22;8301;51.440;6.610;2023-02-28T16:03:45;4.90;1.00
16384;DHT22;8301;51.440;6.610;2023-02-28T16:09:10;4.80;1.00
16384;DHT22;8301;51.440;6.610;2023-02-28T16:11:43;4.80;1.00
16384;DHT22;8301;51.440;6.610;2023-02-28T16:14:11;4.80;1.00
16384;DHT22;8301;51.440;6.610;2023-02-28T16:16:41;4.70;1.00
16384;DHT22;8301;51.440;6.610;2023-02-28T16:19:11;4.70;1.00
16384;DHT22;8301;51.440;6.610;2023-02-28T16:21:38;4.70;1.00
16384;DHT22;8301;51.440;6.610;2023-02-28T16:24:05;4.70;1.00
16384;DHT22;8301;51.440;6.610;2023-02-28T16:26:32;4.60;1.00
16384;DHT22;8301;51.440;6.610;2023-02-28T16:29:04;4.60;1.00
16384;DHT22;8301;51.440;6.610;2023-02-28T16:31:35;4.60;1.00
16384;DHT22;8301;51.440;6.610;2023-02-28T16:34:03;4.50;1.00
16384;DHT22;8301;51.440;6.610;2023-02-28T16:36:31;4.50;1.00
16384;DHT22;8301;51.440;6.610;2023-02-28T16:38:58;4.50;1.00
16384;DHT22;8301;51.440;6.610;2023-02-28T16:41:25;4.50;1.00
16384;DHT22;8301;51.440;6.610;2023-02-28T16:43:54;4.50;1.00
16384;DHT22;8301;51.440;6.610;2023-02-28T16:46:22;4.40;1.00
16384;DHT22;8301;51.440;6.610;2023-02-28T16:48:55;4.30;1.00
16384;DHT22;8301;51.440;6.610;2023-02-28T16:51:22;4.30;1.00
16384;DHT22;8301;51.440;6.610;2023-02-28T16:53:49;4.30;1.00
16384;DHT22;8301;51.440;6.610;2023-02-28T16:56:17;4.30;1.00
16384;DHT22;8301;51.440;6.610;2023-02-28T16:58:44;4.30;1.00
16384;DHT22;8301;51.440;6.610;2023-02-28T17:01:12;4.20;1.00
16384;DHT22;8301;51.440;6.610;2023-02-28T17:03:39;4.20;1.00
16384;DHT22;8301;51.440;6.610;2023-02-28T17:06:18;4.10;1.00
16384;DHT22;8301;51.440;6.610;2023-02-28T17:08:38;4.10;1.00
16384;DHT22;8301;51.440;6.610;2023-02-28T17:11:04;4.10;1.00
16384;DHT22;8301;51.440;6.610;2023-02-28T17:13:33;4.10;1.00
16384;DHT22;8301;51.440;6.610;2023-02-28T17:16:03;4.00;1.00
16384;DHT22;8301;51.440;6.610;2023-02-28T17:18:37;4.00;1.00
16384;DHT22;8301;51.440;6.610;2023-02-28T17:21:05;3.90;1.00
16384;DHT22;8301;51.440;6.610;2023-02-28T17:23:33;3.90;1.00
16384;DHT22;8301;51.440;6.610;2023-02-28T17:25:59;3.80;1.00
16384;DHT22;8301;51.440;6.610;2023-02-28T17:28:26;3.80;1.00
16384;DHT22;8301;51.440;6.610;2023-02-28T17:30:59;3.70;1.00
16384;DHT22;8301;51.440;6.610;2023-02-28T17:33:26;3.70;1.00
16384;DHT22;8301;51.440;6.610;2023-02-28T17:36:00;3.70;1.00
16384;DHT22;8301;51.440;6.610;2023-02-28T17:38:27;3.70;1.00
16384;DHT22;8301;51.440;6.610;2023-02-28T17:40:55;3.60;1.00
16384;DHT22;8301;51.440;6.610;2023-02-28T17:43:23;3.50;1.00
16384;DHT22;8301;51.440;6.610;2023-02-28T17:45:53;3.50;8.90
16384;DHT22;8301;51.440;6.610;2023-02-28T17:48:20;3.50;1.00
16384;DHT22;8301;51.440;6.610;2023-02-28T17:50:47;3.40;15.30
16384;DHT22;8301;51.440;6.610;2023-02-28T17:53:13;3.40;1.00
16384;DHT22;8301;51.440;6.610;2023-02-28T17:55:41;3.40;1.00
16384;DHT22;8301;51.440;6.610;2023-02-28T17:58:13;3.40;48.40
16384;DHT22;8301;51.440;6.610;2023-02-28T18:00:40;3.30;82.70
16384;DHT22;8301;51.440;6.610;2023-02-28T18:03:09;3.40;19.30
16384;DHT22;8301;51.440;6.610;2023-02-28T18:05:39;3.40;29.40
16384;DHT22;8301;51.440;6.610;2023-02-28T18:08:08;3.30;77.20
16384;DHT22;8301;51.440;6.610;2023-02-28T18:10:36;3.40;65.70
16384;DHT22;8301;51.440;6.610;2023-02-28T18:13:02;3.30;95.50
16384;DHT22;8301;51.440;6.610;2023-02-28T18:15:29;3.20;99.90
16384;DHT22;8301;51.440;6.610;2023-02-28T18:17:56;3.10;99.90
16384;DHT22;8301;51.440;6.610;2023-02-28T18:20:23;3.10;99.90